Vladivostok International Airport
UHWW : now visible

Airfield :











YOU CAN JOIN US ON...

 
LOGIN :

Register | Disclaimer

   EN    FR    IT 

 









Legend :    VFR   Marginal VFR   IFR   Intensive IFR   Very Intensive IFR
Visi :
Ceiling :
>= 8 km
>= 3000ft
5 to 8 km
1000 to 3000 ft
1500m to 5 km
500 to 1000 ft
800 to 1500m
200 to 500 ft
< 800m
< 200 ft
Symbols :   Thunderstorms  Fog  Heavy snow  Heavy precipitations  Wind > 20 kt






- Airport Elevation : 46 ft
- IATA code : VVO


UHWW - Vladivostok International

CURRENT METAR :
  • 200330Z 21003MPS 180V270 9999 NSC 17/M05 Q1016 R25L/0///70 NOSIG RMK QFE761

EXPIRED METARs :
  • 200300Z 35002MPS 290V070 9999 NSC 16/M04 Q1016 R25L/0///70 NOSIG RMK QFE761
  • 200230Z 20002MPS 170V250 9999 NSC 15/M04 Q1016 R25L/0///70 NOSIG RMK QFE761
  • 200200Z 12002MPS 030V200 9999 NSC 15/M03 Q1017 R25L/0///70 NOSIG RMK QFE761
  • 200130Z 27002MPS 200V350 9999 NSC 14/M02 Q1017 R25L/0///70 NOSIG RMK QFE762
  • 200100Z 22002MPS 150V300 9999 NSC 13/01 Q1017 R25L/0///70 NOSIG RMK QFE762
  • 200030Z 27002MPS 9999 NSC 10/04 Q1017 R25L/0///70 NOSIG RMK QFE762
  • 200000Z 00000MPS 9999 NSC 08/06 Q1017 R25L/0///70 NOSIG RMK QFE762
  • 192330Z 00000MPS 9999 SCT002 05/05 Q1017 R25L/0///70 NOSIG RMK QFE762
  • 192300Z 00000MPS 3000 BR BKN002 04/04 Q1018 R25L/0///70 NOSIG RMK QBB070 MT OBSC QFE762

TAF TAF UHWW
Valid from the 20 at 03:00 until the 21 at 03:00 UTC


200200Z 2003/2103 34003G08MPS 9999 SCT040
BECMG 2006/2008 20003MPS BKN030
BECMG 2010/2012 6000 -SHRA FEW003 BKN016CB
UHWW FIR / Asia



MET'MAP, your aeronautical weather chart ! - Copyright ORBIFLY December 2007 - Disclaimer

ORBIFLY MET'MAP TEAM :

Programming & Development : Alexandra Zaïnal
Original concept : Baudouin d'Aumeries
Technical & hardware support : Manuel Goepfert
Assistance : Marc-Olivier Méhu




SOURCES & CREDITS :

   NOAA       Earth
Advisory